createdAt,value
2019-04-16T00:01:23.602Z,99.90
2019-04-16T00:03:57.788Z,99.90
2019-04-16T00:06:45.094Z,99.90
2019-04-16T00:09:16.124Z,99.90
2019-04-16T00:12:05.143Z,99.90
2019-04-16T00:14:36.110Z,99.90
2019-04-16T00:17:05.499Z,99.90
2019-04-16T00:19:35.881Z,99.90
2019-04-16T00:22:19.051Z,99.90
2019-04-16T00:24:48.931Z,99.90
2019-04-16T00:27:18.339Z,99.90
2019-04-16T00:29:47.715Z,99.90
2019-04-16T00:32:18.684Z,99.90
2019-04-16T00:34:48.007Z,99.90
2019-04-16T00:37:20.497Z,99.90
2019-04-16T00:39:48.406Z,99.90
2019-04-16T00:42:17.727Z,99.90
2019-04-16T00:44:47.039Z,99.90
2019-04-16T00:47:16.443Z,99.90
2019-04-16T00:49:45.764Z,99.90
2019-04-16T00:52:15.107Z,99.90
2019-04-16T00:54:44.425Z,99.90
2019-04-16T00:57:17.696Z,99.90
2019-04-16T00:59:44.764Z,99.90
2019-04-16T01:02:14.154Z,99.90
2019-04-16T01:04:44.529Z,99.90
2019-04-16T01:07:13.849Z,99.90
2019-04-16T01:09:43.169Z,99.90
2019-04-16T01:12:12.565Z,99.90
2019-04-16T01:14:43.389Z,99.90
2019-04-16T01:17:12.732Z,99.90
2019-04-16T01:19:42.051Z,99.90
2019-04-16T01:22:15.772Z,99.90
2019-04-16T01:24:42.460Z,99.90
2019-04-16T01:27:11.861Z,99.90
2019-04-16T01:29:41.179Z,99.90
2019-04-16T01:32:28.704Z,99.90
2019-04-16T01:35:18.865Z,99.90
2019-04-16T01:38:04.852Z,99.90
2019-04-16T01:40:35.887Z,99.90
2019-04-16T01:43:05.301Z,99.90
2019-04-16T01:45:34.804Z,99.90
2019-04-16T01:48:07.062Z,99.90
2019-04-16T01:50:35.396Z,99.90
2019-04-16T01:53:04.898Z,99.90
2019-04-16T01:55:34.288Z,99.90
2019-04-16T01:58:03.961Z,99.90
2019-04-16T02:00:33.459Z,99.90
2019-04-16T02:03:02.856Z,99.90
2019-04-16T02:05:32.184Z,99.90
2019-04-16T02:08:01.516Z,99.90
2019-04-16T02:10:30.910Z,99.90
2019-04-16T02:13:00.691Z,99.90
2019-04-16T02:15:30.091Z,99.90
2019-04-16T02:17:59.915Z,99.90
2019-04-16T02:20:29.642Z,99.90
2019-04-16T02:22:59.267Z,99.90
2019-04-16T02:25:28.655Z,99.90
2019-04-16T02:27:57.982Z,99.90
2019-04-16T02:30:27.355Z,99.90
2019-04-16T02:32:56.729Z,99.90
2019-04-16T02:35:26.131Z,99.90
2019-04-16T02:37:55.452Z,99.90
2019-04-16T02:40:26.319Z,99.90
2019-04-16T02:42:55.675Z,99.90
2019-04-16T02:45:25.067Z,99.90
2019-04-16T02:47:54.523Z,99.90
2019-04-16T02:50:32.172Z,99.90
2019-04-16T02:53:03.391Z,99.90
2019-04-16T02:55:43.935Z,99.90
2019-04-16T02:58:12.903Z,99.90
2019-04-16T03:00:59.236Z,99.90
2019-04-16T03:03:33.199Z,99.90
2019-04-16T03:06:02.612Z,99.90
2019-04-16T03:08:33.361Z,99.90
2019-04-16T03:11:04.011Z,99.90
2019-04-16T03:13:33.414Z,99.90
2019-04-16T03:16:23.012Z,99.90
2019-04-16T03:18:54.039Z,99.90
2019-04-16T03:21:24.504Z,99.90
2019-04-16T03:23:54.552Z,99.90
2019-04-16T03:26:25.025Z,99.90
2019-04-16T03:28:55.665Z,99.90
2019-04-16T03:31:25.458Z,99.90
2019-04-16T03:33:54.860Z,99.90
2019-04-16T03:36:26.508Z,99.90
2019-04-16T03:38:55.252Z,99.90
2019-04-16T03:41:25.707Z,99.90
2019-04-16T03:43:55.179Z,99.90
2019-04-16T03:46:24.535Z,99.90
2019-04-16T03:48:56.081Z,99.90
2019-04-16T03:51:25.016Z,99.90
2019-04-16T03:53:54.332Z,99.90
2019-04-16T03:56:23.680Z,99.90
2019-04-16T03:58:53.087Z,99.90
2019-04-16T04:01:22.487Z,99.90
2019-04-16T04:03:54.441Z,99.90
2019-04-16T04:06:22.996Z,99.90
2019-04-16T04:08:53.310Z,99.90
2019-04-16T04:11:22.832Z,99.90
2019-04-16T04:13:52.151Z,99.90
2019-04-16T04:16:21.491Z,99.90
2019-04-16T04:18:50.816Z,99.90
2019-04-16T04:21:22.124Z,99.90
2019-04-16T04:23:51.180Z,99.90
2019-04-16T04:26:20.503Z,99.90
2019-04-16T04:28:51.765Z,99.90
2019-04-16T04:31:20.879Z,99.90
2019-04-16T04:33:50.205Z,99.90
2019-04-16T04:36:22.678Z,99.90
2019-04-16T04:38:50.689Z,99.90
2019-04-16T04:41:23.071Z,99.90
2019-04-16T04:43:51.165Z,99.90
2019-04-16T04:46:20.592Z,99.90
2019-04-16T04:48:55.029Z,99.90
2019-04-16T04:51:21.187Z,99.90
2019-04-16T04:53:51.352Z,99.90
2019-04-16T04:56:20.824Z,99.90
2019-04-16T04:58:50.316Z,99.90
2019-04-16T05:01:19.630Z,99.90
2019-04-16T05:04:06.295Z,99.90
2019-04-16T05:06:37.248Z,99.90
2019-04-16T05:09:07.214Z,99.90
2019-04-16T05:11:36.600Z,99.90
2019-04-16T05:14:05.967Z,99.90
2019-04-16T05:16:35.287Z,99.90
2019-04-16T05:19:04.787Z,99.90
2019-04-16T05:21:34.170Z,99.90
2019-04-16T05:24:03.659Z,99.90
2019-04-16T05:26:33.499Z,99.90
2019-04-16T05:29:16.104Z,99.90
2019-04-16T05:31:43.053Z,99.90
2019-04-16T05:34:12.649Z,99.90
2019-04-16T05:36:46.943Z,99.90
2019-04-16T05:39:14.720Z,99.90
2019-04-16T05:41:44.056Z,99.90
2019-04-16T05:44:13.399Z,99.90
2019-04-16T05:46:46.496Z,99.90
2019-04-16T05:49:13.790Z,99.90
2019-04-16T05:51:43.178Z,99.90
2019-04-16T05:54:26.383Z,99.90
2019-04-16T05:57:13.844Z,99.90
2019-04-16T05:59:44.955Z,99.90
2019-04-16T06:02:18.733Z,99.90
2019-04-16T06:04:47.198Z,99.90
2019-04-16T06:07:16.520Z,99.90
2019-04-16T06:09:45.855Z,99.90
2019-04-16T06:12:15.167Z,99.90
2019-04-16T06:14:53.992Z,99.90
2019-04-16T06:17:36.747Z,99.70
2019-04-16T06:20:19.075Z,99.90
2019-04-16T06:23:00.615Z,99.90
2019-04-16T06:25:43.888Z,99.90
2019-04-16T06:28:31.220Z,99.90
2019-04-16T06:31:05.690Z,99.40
2019-04-16T06:33:38.501Z,98.10
2019-04-16T06:36:18.587Z,97.00
2019-04-16T06:38:49.570Z,97.90
2019-04-16T06:41:41.181Z,98.20
2019-04-16T06:44:10.643Z,97.40
2019-04-16T06:46:41.611Z,96.10
2019-04-16T06:49:17.809Z,96.40
2019-04-16T06:51:50.560Z,96.20
2019-04-16T06:54:31.851Z,95.10
2019-04-16T06:56:59.968Z,94.70
2019-04-16T06:59:34.055Z,94.10
2019-04-16T07:02:11.238Z,94.90
2019-04-16T07:04:48.299Z,93.40
2019-04-16T07:07:22.583Z,93.50
2019-04-16T07:10:08.908Z,92.50
2019-04-16T07:12:39.159Z,91.70
2019-04-16T07:15:09.399Z,92.10
2019-04-16T07:17:40.454Z,91.50
2019-04-16T07:20:13.029Z,88.50
2019-04-16T07:22:41.275Z,84.00
2019-04-16T07:25:10.742Z,83.20
2019-04-16T07:27:41.906Z,78.70
2019-04-16T07:30:21.239Z,79.00
2019-04-16T07:33:01.268Z,80.90
2019-04-16T07:35:34.841Z,80.40
2019-04-16T07:38:15.187Z,78.80
2019-04-16T07:41:02.381Z,83.10
2019-04-16T07:43:49.664Z,82.10
2019-04-16T07:46:26.578Z,81.40
2019-04-16T07:49:03.752Z,83.90
2019-04-16T07:51:36.013Z,81.60
2019-04-16T07:54:10.304Z,81.80
2019-04-16T07:56:41.480Z,79.30
2019-04-16T07:59:10.811Z,74.50
2019-04-16T08:01:40.136Z,73.90
2019-04-16T08:04:09.463Z,72.80
2019-04-16T08:06:38.920Z,73.30
2019-04-16T08:09:08.261Z,71.00
2019-04-16T08:11:37.939Z,67.40
2019-04-16T08:14:09.794Z,67.90
2019-04-16T08:16:47.188Z,61.90
2019-04-16T08:19:12.186Z,62.40
2019-04-16T08:21:40.657Z,64.00
2019-04-16T08:24:24.263Z,65.20
2019-04-16T08:26:49.748Z,65.60
2019-04-16T08:29:19.148Z,61.70
2019-04-16T08:31:49.331Z,61.00
2019-04-16T08:34:18.831Z,62.00
2019-04-16T08:36:48.160Z,64.80
2019-04-16T08:39:17.479Z,67.70
2019-04-16T08:41:46.800Z,71.80
2019-04-16T08:44:16.215Z,70.20
2019-04-16T08:46:45.536Z,65.40
2019-04-16T08:49:15.371Z,62.00
2019-04-16T08:51:44.828Z,60.30
2019-04-16T08:54:17.833Z,62.50
2019-04-16T08:56:45.701Z,65.80
2019-04-16T08:59:16.158Z,70.70
2019-04-16T09:01:45.555Z,71.80
2019-04-16T09:04:15.128Z,76.80
2019-04-16T09:06:46.232Z,85.20
2019-04-16T09:09:35.555Z,93.90
2019-04-16T09:12:08.853Z,97.60
2019-04-16T09:14:38.983Z,99.90
2019-04-16T09:17:18.863Z,99.90
2019-04-16T09:19:49.835Z,99.90
2019-04-16T09:22:19.157Z,99.90
2019-04-16T09:27:39.852Z,99.90
2019-04-16T09:30:20.727Z,99.90
2019-04-16T09:33:02.342Z,99.90
2019-04-16T09:35:36.427Z,99.90
2019-04-16T09:38:23.417Z,99.90
2019-04-16T09:40:57.064Z,99.20
2019-04-16T09:43:28.195Z,99.90
2019-04-16T09:46:09.706Z,99.90
2019-04-16T09:48:28.685Z,99.90
2019-04-16T09:50:58.016Z,99.90
2019-04-16T09:53:34.160Z,98.90
2019-04-16T09:56:00.011Z,98.10
2019-04-16T09:58:29.365Z,97.90
2019-04-16T10:01:11.393Z,98.50
2019-04-16T10:03:45.081Z,97.90
2019-04-16T10:06:14.475Z,97.60
2019-04-16T10:08:45.061Z,98.00
2019-04-16T10:11:18.544Z,97.00
2019-04-16T10:13:47.171Z,97.00
2019-04-16T10:16:19.518Z,98.10
2019-04-16T10:18:48.917Z,96.80
2019-04-16T10:21:19.670Z,96.00
2019-04-16T10:23:51.002Z,97.00
2019-04-16T10:26:20.494Z,95.80
2019-04-16T10:28:49.820Z,95.90
2019-04-16T10:31:23.653Z,95.10
2019-04-16T10:33:53.811Z,93.60
2019-04-16T10:36:23.392Z,94.50
2019-04-16T10:39:09.447Z,94.80
2019-04-16T10:41:56.540Z,94.00
2019-04-16T10:44:33.696Z,94.70
2019-04-16T10:47:04.795Z,94.80
2019-04-16T10:49:47.840Z,93.80
2019-04-16T10:52:27.869Z,92.80
2019-04-16T10:55:01.586Z,92.40
2019-04-16T10:57:41.431Z,91.80
2019-04-16T11:00:18.690Z,90.70
2019-04-16T11:02:49.777Z,81.20
2019-04-16T11:05:20.811Z,82.80
2019-04-16T11:07:52.168Z,86.90
2019-04-16T11:10:23.247Z,82.90
2019-04-16T11:12:52.755Z,85.70
2019-04-16T11:15:23.954Z,80.60
2019-04-16T11:17:53.358Z,80.30
2019-04-16T11:20:22.742Z,73.90
2019-04-16T11:22:52.144Z,75.50
2019-04-16T11:25:21.567Z,80.50
2019-04-16T11:27:50.947Z,77.80
2019-04-16T11:30:24.996Z,79.00
2019-04-16T11:32:54.348Z,78.10
2019-04-16T11:35:23.691Z,79.60
2019-04-16T11:37:53.069Z,77.60
2019-04-16T11:40:22.420Z,80.60
2019-04-16T11:42:51.854Z,78.70
2019-04-16T11:45:22.785Z,74.90
2019-04-16T11:47:52.257Z,74.70
2019-04-16T11:50:21.633Z,69.70
2019-04-16T11:52:51.085Z,69.10
2019-04-16T11:55:20.444Z,66.60
2019-04-16T11:57:49.829Z,57.50
2019-04-16T12:00:27.067Z,57.40
2019-04-16T12:03:10.184Z,60.80
2019-04-16T12:05:44.095Z,61.20
2019-04-16T12:08:31.342Z,56.60
2019-04-16T12:11:04.169Z,55.10
2019-04-16T12:13:41.335Z,55.70
2019-04-16T12:16:27.419Z,55.60
2019-04-16T12:19:02.153Z,53.90
2019-04-16T12:21:48.408Z,53.40
2019-04-16T12:24:34.437Z,52.40
2019-04-16T12:27:06.499Z,53.40
2019-04-16T12:29:54.667Z,51.20
2019-04-16T12:32:27.037Z,52.40
2019-04-16T12:34:58.465Z,55.10
2019-04-16T12:37:47.558Z,55.90
2019-04-16T12:40:20.070Z,56.50
2019-04-16T12:42:51.302Z,55.90
2019-04-16T12:45:38.294Z,56.50
2019-04-16T12:48:27.631Z,56.10
2019-04-16T12:51:13.984Z,55.30
2019-04-16T12:53:54.246Z,55.50
2019-04-16T12:56:42.909Z,55.20
2019-04-16T12:59:28.943Z,54.90
2019-04-16T13:01:59.988Z,55.00
2019-04-16T13:04:39.823Z,55.40
2019-04-16T13:07:13.937Z,53.90
2019-04-16T13:09:54.156Z,55.10
2019-04-16T13:12:25.123Z,54.90
2019-04-16T13:15:01.037Z,54.20
2019-04-16T13:17:28.829Z,54.50
2019-04-16T13:20:11.795Z,55.60
2019-04-16T13:22:42.759Z,52.80
2019-04-16T13:25:22.927Z,56.20
2019-04-16T13:27:53.267Z,53.90
2019-04-16T13:30:22.601Z,53.50
2019-04-16T13:32:51.999Z,53.40
2019-04-16T13:35:21.320Z,50.60
2019-04-16T13:37:50.656Z,51.70
2019-04-16T13:40:20.812Z,52.40
2019-04-16T13:42:50.292Z,50.90
2019-04-16T13:45:27.123Z,50.20
2019-04-16T13:47:56.495Z,50.10
2019-04-16T13:50:38.226Z,51.30
2019-04-16T13:53:22.933Z,47.40
2019-04-16T13:56:10.909Z,50.40
2019-04-16T13:58:41.968Z,48.30
2019-04-16T14:01:13.003Z,47.20
2019-04-16T14:03:43.395Z,47.70
2019-04-16T14:06:12.714Z,46.90
2019-04-16T14:08:42.291Z,46.40
2019-04-16T14:11:11.776Z,45.30
2019-04-16T14:13:42.057Z,44.80
2019-04-16T14:16:13.738Z,45.40
2019-04-16T14:18:43.136Z,45.60
2019-04-16T14:21:12.635Z,46.00
2019-04-16T14:23:42.032Z,45.90
2019-04-16T14:26:11.604Z,46.10
2019-04-16T14:28:51.768Z,47.60
2019-04-16T14:31:16.287Z,46.80
2019-04-16T14:33:46.401Z,46.40
2019-04-16T14:36:15.780Z,44.10
2019-04-16T14:38:52.288Z,45.60
2019-04-16T14:41:21.610Z,45.20
2019-04-16T14:43:55.018Z,45.90
2019-04-16T14:46:28.188Z,46.30
2019-04-16T14:48:55.365Z,45.80
2019-04-16T14:51:24.756Z,45.00
2019-04-16T14:54:04.938Z,44.50
2019-04-16T14:56:38.834Z,44.80
2019-04-16T14:59:33.011Z,44.20
2019-04-16T15:01:54.343Z,43.20
2019-04-16T15:04:40.172Z,43.60
2019-04-16T15:07:12.656Z,44.00
2019-04-16T15:09:55.629Z,45.00
2019-04-16T15:12:26.586Z,44.30
2019-04-16T15:15:15.388Z,45.00
2019-04-16T15:17:54.965Z,43.70
2019-04-16T15:20:25.944Z,42.70
2019-04-16T15:23:15.043Z,42.80
2019-04-16T15:25:54.903Z,42.80
2019-04-16T15:28:42.266Z,41.50
2019-04-16T15:31:19.340Z,41.80
2019-04-16T15:33:53.231Z,39.00
2019-04-16T15:36:24.195Z,38.00
2019-04-16T15:38:59.071Z,38.00
2019-04-16T15:41:48.441Z,38.40
2019-04-16T15:44:23.654Z,38.50
2019-04-16T15:47:06.753Z,39.80
2019-04-16T15:49:37.788Z,38.30
2019-04-16T15:52:11.903Z,39.00
2019-04-16T15:54:55.356Z,38.90
2019-04-16T15:57:44.396Z,39.00
2019-04-16T16:00:18.964Z,39.10
2019-04-16T16:03:05.749Z,39.20
2019-04-16T16:05:55.263Z,40.50
2019-04-16T16:08:26.899Z,40.80
2019-04-16T16:10:58.960Z,39.50
2019-04-16T16:13:28.315Z,41.30
2019-04-16T16:15:57.707Z,40.90
2019-04-16T16:18:27.028Z,40.90
2019-04-16T16:20:56.350Z,41.20
2019-04-16T16:23:25.671Z,41.90
2019-04-16T16:25:54.996Z,42.10
2019-04-16T16:28:25.579Z,42.00
2019-04-16T16:30:54.914Z,42.40
2019-04-16T16:33:24.236Z,43.40
2019-04-16T16:35:58.754Z,42.30
2019-04-16T16:38:24.639Z,42.60
2019-04-16T16:40:54.033Z,42.60
2019-04-16T16:43:23.767Z,43.40
2019-04-16T16:46:07.525Z,43.80
2019-04-16T16:48:36.969Z,43.90
2019-04-16T16:51:06.391Z,44.30
2019-04-16T16:53:46.190Z,43.60
2019-04-16T16:56:33.696Z,43.90
2019-04-16T16:59:10.759Z,44.30
2019-04-16T17:01:41.804Z,43.90
2019-04-16T17:04:18.669Z,44.20
2019-04-16T17:06:48.026Z,43.90
2019-04-16T17:09:31.223Z,44.00
2019-04-16T17:12:01.226Z,44.90
2019-04-16T17:14:30.754Z,45.10
2019-04-16T17:17:12.887Z,44.50
2019-04-16T17:19:32.920Z,44.50
2019-04-16T17:22:03.322Z,45.20
2019-04-16T17:24:32.643Z,45.70
2019-04-16T17:27:02.157Z,45.10
2019-04-16T17:29:31.679Z,45.80
2019-04-16T17:32:01.152Z,45.20
2019-04-16T17:34:30.601Z,46.10
2019-04-16T17:36:59.979Z,46.80
2019-04-16T17:39:42.627Z,47.50
2019-04-16T17:42:12.903Z,47.90
2019-04-16T17:44:43.952Z,48.20
2019-04-16T17:47:33.361Z,48.10
2019-04-16T17:50:06.100Z,48.40
2019-04-16T17:52:43.013Z,48.90
2019-04-16T17:55:28.994Z,49.60
2019-04-16T17:58:00.068Z,50.00
2019-04-16T18:00:34.742Z,49.70
2019-04-16T18:03:09.187Z,50.10
2019-04-16T18:05:40.161Z,50.70
2019-04-16T18:08:20.341Z,51.30
2019-04-16T18:11:00.169Z,50.80
2019-04-16T18:13:32.343Z,52.00
2019-04-16T18:16:06.795Z,53.50
2019-04-16T18:18:44.074Z,54.50
2019-04-16T18:21:20.740Z,55.80
2019-04-16T18:24:00.822Z,56.80
2019-04-16T18:26:34.544Z,57.40
2019-04-16T18:29:05.792Z,58.10
2019-04-16T18:31:45.765Z,58.30
2019-04-16T18:34:19.878Z,59.00
2019-04-16T18:36:50.838Z,59.90
2019-04-16T18:39:40.164Z,60.10
2019-04-16T18:42:19.840Z,60.30
2019-04-16T18:45:07.304Z,60.40
2019-04-16T18:47:44.239Z,61.10
2019-04-16T18:50:15.651Z,61.20
2019-04-16T18:52:44.975Z,61.90
2019-04-16T18:55:14.308Z,62.30
2019-04-16T18:57:43.803Z,62.30
2019-04-16T19:00:18.100Z,62.70
2019-04-16T19:02:47.568Z,63.20
2019-04-16T19:05:17.146Z,63.20
2019-04-16T19:07:46.532Z,63.70
2019-04-16T19:10:15.871Z,64.20
2019-04-16T19:12:45.372Z,64.20
2019-04-16T19:15:14.939Z,64.80
2019-04-16T19:17:44.267Z,65.10
2019-04-16T19:20:17.456Z,65.30
2019-04-16T19:22:46.475Z,65.50
2019-04-16T19:25:17.076Z,65.40
2019-04-16T19:27:48.939Z,65.50
2019-04-16T19:30:17.878Z,66.10
2019-04-16T19:32:47.272Z,66.40
2019-04-16T19:35:19.178Z,66.30
2019-04-16T19:37:47.627Z,65.90
2019-04-16T19:40:18.970Z,66.30
2019-04-16T19:42:47.992Z,66.00
2019-04-16T19:45:17.379Z,66.80
2019-04-16T19:47:46.711Z,66.60
2019-04-16T19:50:16.040Z,67.00
2019-04-16T19:52:45.793Z,67.00
2019-04-16T19:55:15.263Z,66.50
2019-04-16T19:57:44.595Z,67.00
2019-04-16T20:00:14.160Z,66.70
2019-04-16T20:02:43.555Z,66.20
2019-04-16T20:05:15.341Z,66.60
2019-04-16T20:07:44.155Z,66.10
2019-04-16T20:10:13.739Z,65.40
2019-04-16T20:12:43.143Z,65.60
2019-04-16T20:15:12.537Z,65.60
2019-04-16T20:17:41.979Z,64.30
2019-04-16T20:20:11.591Z,64.50
2019-04-16T20:22:40.962Z,64.50
2019-04-16T20:25:10.554Z,64.60
2019-04-16T20:27:40.799Z,65.20
2019-04-16T20:30:13.061Z,65.40
2019-04-16T20:32:43.535Z,66.40
2019-04-16T20:35:18.081Z,66.20
2019-04-16T20:37:43.884Z,66.50
2019-04-16T20:40:14.695Z,67.00
2019-04-16T20:42:45.526Z,66.80
2019-04-16T20:45:15.001Z,66.70
2019-04-16T20:47:44.428Z,67.60
2019-04-16T20:50:13.930Z,67.50
2019-04-16T20:52:43.255Z,68.70
2019-04-16T20:55:15.782Z,69.50
2019-04-16T20:57:44.021Z,70.30
2019-04-16T21:00:16.779Z,71.60
2019-04-16T21:02:48.246Z,71.90
2019-04-16T21:05:22.317Z,72.60
2019-04-16T21:07:49.671Z,72.90
2019-04-16T21:10:19.089Z,73.10
2019-04-16T21:12:48.403Z,73.10
2019-04-16T21:15:17.733Z,72.60
2019-04-16T21:17:47.136Z,72.90
2019-04-16T21:20:19.076Z,73.40
2019-04-16T21:22:47.541Z,73.90
2019-04-16T21:25:16.871Z,74.60
2019-04-16T21:27:50.505Z,75.30
2019-04-16T21:30:20.099Z,76.00
2019-04-16T21:32:53.807Z,76.00
2019-04-16T21:35:33.727Z,77.00
2019-04-16T21:38:13.646Z,77.40
2019-04-16T21:40:43.100Z,77.50
2019-04-16T21:43:12.491Z,77.50
2019-04-16T21:45:41.816Z,77.80
2019-04-16T21:48:12.529Z,78.90
2019-04-16T21:50:44.511Z,79.10
2019-04-16T21:53:13.179Z,79.30
2019-04-16T21:55:42.567Z,79.70
2019-04-16T21:58:14.519Z,79.80
2019-04-16T22:00:49.264Z,79.30
2019-04-16T22:03:24.807Z,77.90
2019-04-16T22:05:54.131Z,77.20
2019-04-16T22:08:23.518Z,77.40
2019-04-16T22:10:52.847Z,78.60
2019-04-16T22:13:22.229Z,79.50
2019-04-16T22:15:53.762Z,80.40
2019-04-16T22:18:22.775Z,80.70
2019-04-16T22:20:52.102Z,81.40
2019-04-16T22:23:22.498Z,81.90
2019-04-16T22:25:51.904Z,82.50
2019-04-16T22:28:21.208Z,83.40
2019-04-16T22:30:51.660Z,84.20
2019-04-16T22:33:21.759Z,83.90
2019-04-16T22:35:52.780Z,84.00
2019-04-16T22:38:22.173Z,83.70
2019-04-16T22:40:56.566Z,83.70
2019-04-16T22:43:27.760Z,84.50
2019-04-16T22:46:01.727Z,85.30
2019-04-16T22:48:31.063Z,86.10
2019-04-16T22:51:00.450Z,87.60
2019-04-16T22:53:29.848Z,87.80
2019-04-16T22:56:28.168Z,89.60
2019-04-16T22:58:56.251Z,90.40
2019-04-16T23:01:30.601Z,91.30
2019-04-16T23:03:59.913Z,91.80
2019-04-16T23:06:29.240Z,92.50
2019-04-16T23:08:58.563Z,93.00
2019-04-16T23:11:28.954Z,93.30
2019-04-16T23:13:58.267Z,93.70
2019-04-16T23:16:27.616Z,93.40
2019-04-16T23:18:56.996Z,93.50
2019-04-16T23:21:26.652Z,93.40
2019-04-16T23:23:55.971Z,93.50
2019-04-16T23:26:25.347Z,93.80
2019-04-16T23:28:54.671Z,93.70
2019-04-16T23:31:23.997Z,93.60
2019-04-16T23:33:53.351Z,93.50
2019-04-16T23:36:22.751Z,93.80
2019-04-16T23:38:52.242Z,94.20
2019-04-16T23:41:21.635Z,94.30
2019-04-16T23:43:53.586Z,94.50
2019-04-16T23:46:31.471Z,94.60
2019-04-16T23:49:02.490Z,94.90
2019-04-16T23:51:33.442Z,95.20
2019-04-16T23:54:11.747Z,95.40
2019-04-16T23:56:42.997Z,95.70
2019-04-16T23:59:13.959Z,95.70
